createdAt,value
2018-06-30T00:00:38.885Z,4.00
2018-06-30T00:01:38.821Z,3.90
2018-06-30T00:02:38.761Z,4.40
2018-06-30T00:03:38.684Z,3.70
2018-06-30T00:04:38.636Z,3.80
2018-06-30T00:05:38.567Z,3.80
2018-06-30T00:06:38.509Z,4.00
2018-06-30T00:07:38.453Z,4.00
2018-06-30T00:08:38.378Z,4.10
2018-06-30T00:09:38.330Z,3.90
2018-06-30T00:10:38.250Z,4.30
2018-06-30T00:11:38.240Z,4.00
2018-06-30T00:12:38.133Z,3.90
2018-06-30T00:13:38.066Z,3.80
2018-06-30T00:14:38.075Z,3.90
2018-06-30T00:15:37.936Z,3.60
2018-06-30T00:16:37.880Z,3.60
2018-06-30T00:17:37.832Z,3.50
2018-06-30T00:18:37.772Z,3.90
2018-06-30T00:19:37.705Z,3.80
2018-06-30T00:20:37.628Z,3.80
2018-06-30T00:21:37.587Z,3.60
2018-06-30T00:22:37.537Z,3.70
2018-06-30T00:23:37.455Z,4.10
2018-06-30T00:24:37.387Z,3.80
2018-06-30T00:25:37.316Z,3.80
2018-06-30T00:26:37.263Z,3.30
2018-06-30T00:27:37.206Z,3.70
2018-06-30T00:28:37.147Z,3.60
2018-06-30T00:29:37.079Z,3.60
2018-06-30T00:30:37.016Z,3.50
2018-06-30T00:31:36.936Z,3.80
2018-06-30T00:32:36.891Z,3.70
2018-06-30T00:33:36.819Z,3.80
2018-06-30T00:34:36.756Z,3.80
2018-06-30T00:35:36.693Z,3.80
2018-06-30T00:36:36.638Z,3.50
2018-06-30T00:37:36.577Z,3.70
2018-06-30T00:38:36.513Z,4.00
2018-06-30T00:39:36.463Z,3.70
2018-06-30T00:40:36.380Z,3.90
2018-06-30T00:41:36.339Z,3.70
2018-06-30T00:42:36.266Z,3.70
2018-06-30T00:43:36.189Z,3.60
2018-06-30T00:44:36.144Z,3.80
2018-06-30T00:45:36.081Z,3.90
2018-06-30T00:46:36.029Z,3.90
2018-06-30T00:47:35.950Z,3.80
2018-06-30T00:48:35.896Z,3.60
2018-06-30T00:49:35.817Z,4.10
2018-06-30T00:50:35.755Z,4.10
2018-06-30T00:51:35.703Z,3.90
2018-06-30T00:52:35.663Z,3.80
2018-06-30T00:53:35.567Z,4.30
2018-06-30T00:54:35.511Z,3.70
2018-06-30T00:55:35.440Z,3.70
2018-06-30T00:56:35.392Z,4.00
2018-06-30T00:57:35.329Z,4.10
2018-06-30T00:58:35.257Z,4.60
2018-06-30T00:59:35.191Z,3.80
2018-06-30T01:00:35.131Z,4.20
2018-06-30T01:01:35.075Z,4.90
2018-06-30T01:02:35.001Z,4.10
2018-06-30T01:03:34.952Z,4.10
2018-06-30T01:04:34.883Z,4.50
2018-06-30T01:05:34.829Z,3.80
2018-06-30T01:06:34.762Z,3.90
2018-06-30T01:07:34.718Z,3.80
2018-06-30T01:08:34.634Z,3.80
2018-06-30T01:09:34.587Z,3.80
2018-06-30T01:10:34.504Z,4.90
2018-06-30T01:11:34.458Z,4.10
2018-06-30T01:12:34.386Z,4.10
2018-06-30T01:13:34.323Z,3.60
2018-06-30T01:14:34.283Z,4.20
2018-06-30T01:15:34.194Z,3.60
2018-06-30T01:16:34.143Z,3.70
2018-06-30T01:17:34.069Z,3.70
2018-06-30T01:18:34.008Z,4.00
2018-06-30T01:19:33.955Z,4.10
2018-06-30T01:20:33.882Z,3.90
2018-06-30T01:21:33.824Z,3.90
2018-06-30T01:22:33.764Z,3.90
2018-06-30T01:23:33.704Z,4.00
2018-06-30T01:24:33.641Z,3.90
2018-06-30T01:25:33.575Z,3.90
2018-06-30T01:26:33.552Z,3.70
2018-06-30T01:27:33.442Z,3.80
2018-06-30T01:28:33.379Z,3.80
2018-06-30T01:29:33.323Z,4.30
2018-06-30T01:30:33.258Z,3.80
2018-06-30T01:31:33.204Z,3.80
2018-06-30T01:32:33.126Z,4.10
2018-06-30T01:33:33.063Z,4.20
2018-06-30T01:34:33.019Z,3.80
2018-06-30T01:35:32.938Z,4.10
2018-06-30T01:36:32.884Z,4.20
2018-06-30T01:37:32.822Z,4.20
2018-06-30T01:38:32.758Z,3.70
2018-06-30T01:39:32.697Z,3.90
2018-06-30T01:40:32.622Z,4.00
2018-06-30T01:41:32.578Z,3.90
2018-06-30T01:42:32.509Z,4.00
2018-06-30T01:43:32.434Z,3.80
2018-06-30T01:44:32.385Z,3.90
2018-06-30T01:45:32.317Z,4.20
2018-06-30T01:46:32.242Z,4.10
2018-06-30T01:47:32.190Z,4.00
2018-06-30T01:48:32.125Z,4.20
2018-06-30T01:49:32.074Z,4.30
2018-06-30T01:50:31.997Z,4.40
2018-06-30T01:51:31.927Z,4.10
2018-06-30T01:52:31.866Z,4.40
2018-06-30T01:53:31.816Z,4.10
2018-06-30T01:54:31.741Z,4.30
2018-06-30T01:55:31.679Z,3.90
2018-06-30T01:56:31.612Z,4.20
2018-06-30T01:57:31.570Z,4.40
2018-06-30T01:58:31.499Z,4.10
2018-06-30T01:59:31.434Z,4.50
2018-06-30T02:00:31.379Z,4.50
2018-06-30T02:01:31.313Z,4.40
2018-06-30T02:02:31.254Z,4.70
2018-06-30T02:03:31.187Z,4.80
2018-06-30T02:04:31.123Z,4.80
2018-06-30T02:05:31.044Z,4.90
2018-06-30T02:06:31.000Z,5.20
2018-06-30T02:07:30.931Z,5.00
2018-06-30T02:08:30.858Z,4.90
2018-06-30T02:09:30.800Z,5.10
2018-06-30T02:10:30.743Z,5.10
2018-06-30T02:11:30.668Z,5.30
2018-06-30T02:12:30.615Z,5.40
2018-06-30T02:13:30.548Z,5.00
2018-06-30T02:14:30.481Z,4.90
2018-06-30T02:15:30.428Z,5.40
2018-06-30T02:16:30.348Z,5.40
2018-06-30T02:17:30.292Z,5.40
2018-06-30T02:18:30.229Z,5.10
2018-06-30T02:19:30.169Z,5.00
2018-06-30T02:20:30.099Z,5.40
2018-06-30T02:21:30.116Z,4.90
2018-06-30T02:22:29.980Z,5.20
2018-06-30T02:23:29.927Z,5.50
2018-06-30T02:24:29.854Z,5.20
2018-06-30T02:25:29.798Z,5.40
2018-06-30T02:26:29.735Z,5.20
2018-06-30T02:27:29.659Z,5.90
2018-06-30T02:28:29.599Z,5.10
2018-06-30T02:29:29.537Z,5.40
2018-06-30T02:30:29.479Z,5.20
2018-06-30T02:31:29.411Z,4.70
2018-06-30T02:32:29.363Z,4.60
2018-06-30T02:33:29.294Z,4.90
2018-06-30T02:34:29.229Z,4.80
2018-06-30T02:35:29.156Z,5.40
2018-06-30T02:36:29.111Z,4.80
2018-06-30T02:37:29.041Z,4.60
2018-06-30T02:38:28.983Z,4.80
2018-06-30T02:39:28.912Z,5.00
2018-06-30T02:40:28.859Z,4.70
2018-06-30T02:41:28.795Z,4.70
2018-06-30T02:42:28.725Z,4.70
2018-06-30T02:43:28.662Z,4.90
2018-06-30T02:44:28.592Z,5.40
2018-06-30T02:45:28.537Z,4.40
2018-06-30T02:46:28.464Z,4.90
2018-06-30T02:47:28.396Z,4.70
2018-06-30T02:48:28.358Z,4.70
2018-06-30T02:49:28.293Z,4.80
2018-06-30T02:50:28.208Z,4.90
2018-06-30T02:51:28.148Z,4.70
2018-06-30T02:52:28.091Z,4.70
2018-06-30T02:53:28.038Z,4.70
2018-06-30T02:54:27.966Z,5.10
2018-06-30T02:55:27.897Z,4.70
2018-06-30T02:56:27.848Z,4.60
2018-06-30T02:57:27.792Z,4.60
2018-06-30T02:58:27.715Z,4.60
2018-06-30T02:59:27.653Z,4.70
2018-06-30T03:00:27.591Z,4.80
2018-06-30T03:01:27.527Z,5.10
2018-06-30T03:02:27.474Z,5.20
2018-06-30T03:03:27.390Z,5.40
2018-06-30T03:04:27.332Z,5.00
2018-06-30T03:05:27.275Z,4.90
2018-06-30T03:06:27.220Z,4.40
2018-06-30T03:07:27.151Z,4.90
2018-06-30T03:08:27.105Z,4.80
2018-06-30T03:09:27.010Z,5.20
2018-06-30T03:10:26.948Z,5.00
2018-06-30T03:11:26.918Z,5.30
2018-06-30T03:12:26.834Z,5.20
2018-06-30T03:13:26.763Z,4.80
2018-06-30T03:14:26.694Z,4.80
2018-06-30T03:15:26.659Z,4.80
2018-06-30T03:16:26.576Z,4.60
2018-06-30T03:17:26.518Z,5.20
2018-06-30T03:18:26.451Z,5.10
2018-06-30T03:19:26.391Z,4.50
2018-06-30T03:20:26.329Z,5.20
2018-06-30T03:21:26.272Z,5.20
2018-06-30T03:22:26.201Z,5.00
2018-06-30T03:23:26.135Z,5.00
2018-06-30T03:24:26.070Z,4.90
2018-06-30T03:25:26.017Z,4.70
2018-06-30T03:26:25.944Z,4.70
2018-06-30T03:27:25.881Z,4.80
2018-06-30T03:28:25.821Z,4.90
2018-06-30T03:29:25.765Z,4.80
2018-06-30T03:30:25.692Z,4.80
2018-06-30T03:31:25.668Z,4.90
2018-06-30T03:32:25.567Z,5.20
2018-06-30T03:33:25.506Z,4.80
2018-06-30T03:34:25.449Z,4.70
2018-06-30T03:35:25.383Z,4.80
2018-06-30T03:36:25.323Z,5.10
2018-06-30T03:37:25.268Z,4.80
2018-06-30T03:38:25.190Z,4.90
2018-06-30T03:39:25.139Z,4.90
2018-06-30T03:40:25.073Z,5.00
2018-06-30T03:41:25.005Z,4.70
2018-06-30T03:42:24.944Z,5.60
2018-06-30T03:43:24.885Z,4.90
2018-06-30T03:44:24.810Z,5.00
2018-06-30T03:45:24.748Z,5.00
2018-06-30T03:46:24.698Z,4.70
2018-06-30T03:47:24.632Z,5.00
2018-06-30T03:48:24.558Z,4.90
2018-06-30T03:49:24.511Z,5.10
2018-06-30T03:50:24.443Z,5.10
2018-06-30T03:51:24.386Z,5.10
2018-06-30T03:52:24.310Z,4.90
2018-06-30T03:53:24.250Z,4.80
2018-06-30T03:54:24.193Z,5.20
2018-06-30T03:55:24.134Z,5.10
2018-06-30T03:56:24.060Z,4.60
2018-06-30T03:57:23.994Z,4.70
2018-06-30T03:58:23.927Z,4.90
2018-06-30T03:59:23.881Z,4.80
2018-06-30T04:00:23.908Z,5.10
2018-06-30T04:01:23.751Z,5.10
2018-06-30T04:02:23.687Z,5.10
2018-06-30T04:03:23.611Z,5.00
2018-06-30T04:04:23.558Z,5.20
2018-06-30T04:05:23.509Z,5.00
2018-06-30T04:06:23.428Z,5.20
2018-06-30T04:07:23.375Z,5.20
2018-06-30T04:08:23.301Z,5.10
2018-06-30T04:09:23.255Z,5.20
2018-06-30T04:10:23.174Z,5.50
2018-06-30T04:11:23.162Z,5.30
2018-06-30T04:12:23.050Z,5.50
2018-06-30T04:13:22.996Z,5.30
2018-06-30T04:14:22.932Z,5.10
2018-06-30T04:15:22.864Z,5.70
2018-06-30T04:16:22.787Z,5.30
2018-06-30T04:17:22.729Z,5.60
2018-06-30T04:18:22.666Z,5.70
2018-06-30T04:19:22.609Z,5.10
2018-06-30T04:20:22.542Z,5.10
2018-06-30T04:21:22.491Z,5.40
2018-06-30T04:22:22.420Z,5.70
2018-06-30T04:23:22.350Z,5.50
2018-06-30T04:24:22.299Z,5.40
2018-06-30T04:25:22.235Z,5.10
2018-06-30T04:26:22.157Z,5.60
2018-06-30T04:27:22.100Z,5.20
2018-06-30T04:28:22.043Z,5.50
2018-06-30T04:29:21.976Z,5.70
2018-06-30T04:30:21.921Z,5.70
2018-06-30T04:31:21.844Z,5.50
2018-06-30T04:32:21.797Z,5.50
2018-06-30T04:33:21.730Z,5.20
2018-06-30T04:34:21.656Z,5.50
2018-06-30T04:35:21.597Z,5.50
2018-06-30T04:36:21.536Z,5.50
2018-06-30T04:37:21.466Z,5.70
2018-06-30T04:38:21.401Z,5.70
2018-06-30T04:39:21.349Z,5.60
2018-06-30T04:40:21.286Z,5.30
2018-06-30T04:41:21.216Z,5.20
2018-06-30T04:42:21.152Z,5.50
2018-06-30T04:43:21.095Z,5.30
2018-06-30T04:44:21.035Z,5.60
2018-06-30T04:45:20.956Z,6.10
2018-06-30T04:46:20.906Z,5.60
2018-06-30T04:47:20.839Z,5.70
2018-06-30T04:48:20.773Z,5.80
2018-06-30T04:49:20.712Z,5.60
2018-06-30T04:50:20.648Z,6.20
2018-06-30T04:51:20.586Z,5.70
2018-06-30T04:52:20.526Z,5.70
2018-06-30T04:53:20.448Z,6.00
2018-06-30T04:54:20.393Z,5.50
2018-06-30T04:55:20.333Z,5.40
2018-06-30T04:56:20.254Z,5.50
2018-06-30T04:57:20.189Z,5.70
2018-06-30T04:58:20.146Z,6.00
2018-06-30T04:59:20.076Z,6.30
2018-06-30T05:00:20.011Z,5.50
2018-06-30T05:01:19.949Z,5.60
2018-06-30T05:02:19.888Z,6.20
2018-06-30T05:03:19.814Z,5.80
2018-06-30T05:04:19.758Z,5.70
2018-06-30T05:05:19.696Z,5.80
2018-06-30T05:06:19.634Z,5.70
2018-06-30T05:07:19.562Z,5.70
2018-06-30T05:08:19.507Z,5.80
2018-06-30T05:09:19.427Z,6.00
2018-06-30T05:10:19.365Z,6.30
2018-06-30T05:11:19.311Z,5.70
2018-06-30T05:12:19.246Z,6.10
2018-06-30T05:13:19.186Z,5.90
2018-06-30T05:14:19.117Z,6.10
2018-06-30T05:15:19.061Z,5.80
2018-06-30T05:16:18.983Z,5.70
2018-06-30T05:17:18.921Z,5.80
2018-06-30T05:18:18.857Z,5.60
2018-06-30T05:19:18.794Z,5.80
2018-06-30T05:20:18.736Z,5.80
2018-06-30T05:21:18.676Z,6.20
2018-06-30T05:22:18.607Z,5.80
2018-06-30T05:23:18.539Z,6.00
2018-06-30T05:24:18.509Z,5.70
2018-06-30T05:25:18.421Z,5.70
2018-06-30T05:26:18.365Z,5.50
2018-06-30T05:27:18.289Z,5.70
2018-06-30T05:28:18.221Z,6.10
2018-06-30T05:29:18.169Z,5.70
2018-06-30T05:30:18.104Z,5.80
2018-06-30T05:31:18.043Z,5.80
2018-06-30T05:32:17.975Z,5.50
2018-06-30T05:33:17.935Z,6.30
2018-06-30T05:34:17.863Z,5.70
2018-06-30T05:35:17.778Z,5.60
2018-06-30T05:36:17.722Z,5.70
2018-06-30T05:37:17.673Z,5.80
2018-06-30T05:38:17.584Z,6.20
2018-06-30T05:39:17.540Z,6.00
2018-06-30T05:40:17.475Z,5.70
2018-06-30T05:41:17.428Z,6.00
2018-06-30T05:42:17.344Z,6.20
2018-06-30T05:43:17.289Z,5.90
2018-06-30T05:44:17.212Z,6.30
2018-06-30T05:45:17.151Z,6.30
2018-06-30T05:46:17.085Z,5.80
2018-06-30T05:47:17.042Z,6.30
2018-06-30T05:48:16.974Z,5.90
2018-06-30T05:49:16.901Z,6.40
2018-06-30T05:50:16.849Z,6.00
2018-06-30T05:51:16.773Z,5.60
2018-06-30T05:52:16.725Z,6.20
2018-06-30T05:53:16.720Z,6.00
2018-06-30T05:54:16.599Z,6.10
2018-06-30T05:55:16.528Z,5.90
2018-06-30T05:56:16.479Z,5.80
2018-06-30T05:57:16.413Z,6.00
2018-06-30T05:58:16.333Z,6.20
2018-06-30T05:59:16.324Z,6.20
2018-06-30T06:00:16.211Z,6.20
2018-06-30T06:01:16.154Z,6.10
2018-06-30T06:02:16.123Z,6.50
2018-06-30T06:03:16.035Z,6.30
2018-06-30T06:04:15.960Z,6.30
2018-06-30T06:05:15.899Z,6.50
2018-06-30T06:06:15.855Z,6.30
2018-06-30T06:07:15.775Z,6.10
2018-06-30T06:08:15.722Z,6.00
2018-06-30T06:09:15.662Z,6.10
2018-06-30T06:10:15.599Z,6.30
2018-06-30T06:11:15.541Z,6.30
2018-06-30T06:12:15.472Z,6.00
2018-06-30T06:13:15.409Z,6.10
2018-06-30T06:14:15.353Z,6.00
2018-06-30T06:15:15.314Z,6.10
2018-06-30T06:16:15.234Z,5.50
2018-06-30T06:17:15.172Z,6.00
2018-06-30T06:18:15.117Z,5.90
2018-06-30T06:19:15.047Z,5.50
2018-06-30T06:20:15.066Z,6.00
2018-06-30T06:21:14.966Z,5.40
2018-06-30T06:22:14.849Z,5.60
2018-06-30T06:23:14.790Z,5.80
2018-06-30T06:24:14.733Z,5.70
2018-06-30T06:25:14.690Z,5.80
2018-06-30T06:26:14.600Z,6.00
2018-06-30T06:27:14.541Z,6.00
2018-06-30T06:28:14.478Z,5.60
2018-06-30T06:29:14.414Z,5.60
2018-06-30T06:30:14.364Z,5.80
2018-06-30T06:31:14.306Z,5.80
2018-06-30T06:32:14.249Z,5.70
2018-06-30T06:33:14.190Z,5.70
2018-06-30T06:34:14.109Z,5.80
2018-06-30T06:35:14.052Z,5.20
2018-06-30T06:36:13.990Z,5.60
2018-06-30T06:37:13.930Z,6.40
2018-06-30T06:38:13.873Z,6.00
2018-06-30T06:39:13.817Z,6.40
2018-06-30T06:40:13.740Z,5.70
2018-06-30T06:41:13.679Z,6.60
2018-06-30T06:42:13.623Z,6.20
2018-06-30T06:43:13.564Z,6.00
2018-06-30T06:44:13.505Z,5.80
2018-06-30T06:45:13.447Z,5.80
2018-06-30T06:46:13.375Z,5.80
2018-06-30T06:47:13.319Z,6.00
2018-06-30T06:48:13.258Z,5.80
2018-06-30T06:49:13.202Z,5.60
2018-06-30T06:50:13.139Z,5.90
2018-06-30T06:51:13.084Z,6.10
2018-06-30T06:52:13.026Z,5.60
2018-06-30T06:53:12.963Z,6.00
2018-06-30T06:54:12.900Z,5.80
2018-06-30T06:55:12.835Z,6.00
2018-06-30T06:56:12.779Z,6.00
2018-06-30T06:57:12.707Z,6.10
2018-06-30T06:58:12.657Z,5.90
2018-06-30T06:59:12.583Z,6.70
2018-06-30T07:00:12.520Z,6.10
2018-06-30T07:01:12.462Z,5.60
2018-06-30T07:02:12.406Z,6.10
2018-06-30T07:03:12.391Z,6.30
2018-06-30T07:04:12.300Z,6.30
2018-06-30T07:05:12.216Z,6.20
2018-06-30T07:06:12.164Z,6.40
2018-06-30T07:07:12.104Z,5.90
2018-06-30T07:08:12.025Z,6.10
2018-06-30T07:09:11.971Z,6.10
2018-06-30T07:10:11.908Z,6.00
2018-06-30T07:11:11.865Z,6.30
2018-06-30T07:12:11.795Z,6.10
2018-06-30T07:13:11.737Z,6.20
2018-06-30T07:14:11.664Z,6.20
2018-06-30T07:15:11.602Z,6.20
2018-06-30T07:16:11.545Z,6.80
2018-06-30T07:17:11.487Z,6.60
2018-06-30T07:18:11.424Z,6.30
2018-06-30T07:19:11.404Z,6.40
2018-06-30T07:20:11.297Z,6.30
2018-06-30T07:21:11.237Z,6.70
2018-06-30T07:22:11.195Z,6.90
2018-06-30T07:23:11.127Z,6.70
2018-06-30T07:24:11.062Z,6.30
2018-06-30T07:25:10.990Z,6.50
2018-06-30T07:26:10.948Z,6.40
2018-06-30T07:27:10.879Z,6.70
2018-06-30T07:28:10.805Z,6.60
2018-06-30T07:29:10.770Z,6.40
2018-06-30T07:30:10.696Z,6.30
2018-06-30T07:31:10.627Z,6.20
2018-06-30T07:32:10.591Z,6.30
2018-06-30T07:33:10.517Z,6.50
2018-06-30T07:34:10.451Z,6.40
2018-06-30T07:35:10.393Z,6.20
2018-06-30T07:36:10.329Z,5.90
2018-06-30T07:37:10.300Z,6.20
2018-06-30T07:38:10.196Z,5.80
2018-06-30T07:39:10.302Z,6.00
2018-06-30T07:40:10.104Z,6.00
2018-06-30T07:41:10.029Z,5.90
2018-06-30T07:42:09.991Z,5.80
2018-06-30T07:43:09.939Z,6.20
2018-06-30T07:44:09.842Z,6.20
2018-06-30T07:45:09.794Z,6.10
2018-06-30T07:46:09.724Z,6.00
2018-06-30T07:47:09.668Z,5.90
2018-06-30T07:48:09.625Z,6.20
2018-06-30T07:49:09.531Z,5.80
2018-06-30T07:50:09.515Z,5.80
2018-06-30T07:51:09.427Z,5.80
2018-06-30T07:52:09.359Z,6.00
2018-06-30T07:53:09.327Z,5.60
2018-06-30T07:54:09.242Z,5.40
2018-06-30T07:55:09.178Z,5.80
2018-06-30T07:56:09.171Z,5.90
2018-06-30T07:57:09.062Z,6.10
2018-06-30T07:58:09.007Z,5.80
2018-06-30T07:59:08.945Z,5.70
2018-06-30T08:00:08.878Z,6.00
2018-06-30T08:01:08.830Z,6.10
2018-06-30T08:02:08.827Z,5.60
2018-06-30T08:03:08.690Z,5.60
2018-06-30T08:04:08.634Z,6.10
2018-06-30T08:05:08.576Z,5.90
2018-06-30T08:06:08.520Z,5.60
2018-06-30T08:07:08.451Z,6.00
2018-06-30T08:08:08.398Z,5.40
2018-06-30T08:09:08.321Z,5.30
2018-06-30T08:10:08.283Z,4.90
2018-06-30T08:11:08.222Z,5.20
2018-06-30T08:12:08.155Z,5.00
2018-06-30T08:13:08.094Z,5.40
2018-06-30T08:14:08.035Z,6.90
2018-06-30T08:15:07.967Z,5.40
2018-06-30T08:16:07.926Z,5.30
2018-06-30T08:17:07.858Z,4.90
2018-06-30T08:18:07.790Z,4.90
2018-06-30T08:19:07.737Z,5.50
2018-06-30T08:20:07.663Z,5.20
2018-06-30T08:21:07.660Z,5.70
2018-06-30T08:22:07.556Z,5.90
2018-06-30T08:23:07.501Z,5.60
2018-06-30T08:24:07.433Z,6.00
2018-06-30T08:25:07.371Z,5.40
2018-06-30T08:26:07.308Z,5.60
2018-06-30T08:27:07.254Z,4.90
2018-06-30T08:28:07.185Z,5.10
2018-06-30T08:29:07.123Z,5.30
2018-06-30T08:30:07.081Z,5.10
2018-06-30T08:31:07.007Z,5.00
2018-06-30T08:32:06.946Z,5.50
2018-06-30T08:33:06.907Z,4.90
2018-06-30T08:34:06.846Z,4.70
2018-06-30T08:35:06.766Z,5.20
2018-06-30T08:36:06.712Z,5.10
2018-06-30T08:37:06.665Z,5.00
2018-06-30T08:38:06.590Z,4.40
2018-06-30T08:39:06.542Z,4.30
2018-06-30T08:40:06.462Z,4.60
2018-06-30T08:41:06.424Z,4.80
2018-06-30T08:42:07.382Z,4.70
2018-06-30T08:43:06.375Z,4.70
2018-06-30T08:44:06.860Z,4.30
2018-06-30T08:45:06.166Z,4.30
2018-06-30T08:46:06.125Z,4.60
2018-06-30T08:47:06.048Z,4.20
2018-06-30T08:48:06.014Z,4.60
2018-06-30T08:49:05.930Z,4.60
2018-06-30T08:50:06.888Z,4.40
2018-06-30T08:51:05.929Z,4.50
2018-06-30T08:52:05.750Z,4.40
2018-06-30T08:53:05.693Z,4.70
2018-06-30T08:54:05.632Z,4.20
2018-06-30T08:55:05.572Z,4.00
2018-06-30T08:56:05.518Z,4.20
2018-06-30T08:57:05.506Z,4.20
2018-06-30T08:58:05.383Z,4.20
2018-06-30T08:59:05.336Z,3.90
2018-06-30T09:00:05.277Z,4.20
2018-06-30T09:01:05.223Z,4.30
2018-06-30T09:02:05.153Z,4.00
2018-06-30T09:03:05.094Z,4.20
2018-06-30T09:04:05.025Z,4.20
2018-06-30T09:05:04.970Z,4.30
2018-06-30T09:06:04.910Z,4.10
2018-06-30T09:07:04.857Z,4.50
2018-06-30T09:08:04.785Z,4.40
2018-06-30T09:09:04.730Z,4.40
2018-06-30T09:10:04.682Z,4.40
2018-06-30T09:11:04.602Z,4.60
2018-06-30T09:12:04.579Z,4.50
2018-06-30T09:13:04.495Z,4.70
2018-06-30T09:14:04.441Z,4.30
2018-06-30T09:15:04.382Z,4.10
2018-06-30T09:16:04.356Z,4.50
2018-06-30T09:17:04.250Z,4.00
2018-06-30T09:18:04.207Z,5.00
2018-06-30T09:19:04.133Z,4.30
2018-06-30T09:20:04.090Z,4.40
2018-06-30T09:21:04.060Z,4.00
2018-06-30T09:22:03.964Z,4.20
2018-06-30T09:23:03.885Z,3.80
2018-06-30T09:24:03.875Z,4.20
2018-06-30T09:25:03.778Z,4.20
2018-06-30T09:26:03.713Z,3.90
2018-06-30T09:27:03.662Z,4.10
2018-06-30T09:28:03.592Z,3.80
2018-06-30T09:29:03.533Z,3.60
2018-06-30T09:30:03.468Z,3.70
2018-06-30T09:31:03.422Z,3.80
2018-06-30T09:32:03.363Z,3.80
2018-06-30T09:33:03.298Z,3.80
2018-06-30T09:34:03.244Z,4.10
2018-06-30T09:35:03.177Z,3.60
2018-06-30T09:36:03.111Z,4.00
2018-06-30T09:37:03.066Z,3.80
2018-06-30T09:38:03.002Z,4.20
2018-06-30T09:39:02.947Z,4.10
2018-06-30T09:40:02.880Z,3.70
2018-06-30T09:41:02.810Z,4.00
2018-06-30T09:42:02.754Z,4.20
2018-06-30T09:43:02.691Z,4.30
2018-06-30T09:44:02.639Z,3.90
2018-06-30T09:45:02.587Z,3.90
2018-06-30T09:46:02.537Z,3.80
2018-06-30T09:47:02.451Z,3.70
2018-06-30T09:48:02.406Z,4.00
2018-06-30T09:49:02.340Z,4.00
2018-06-30T09:50:02.276Z,3.90
2018-06-30T09:51:02.282Z,3.60
2018-06-30T09:52:02.151Z,3.90
2018-06-30T09:53:02.091Z,3.60
2018-06-30T09:54:02.045Z,3.70
2018-06-30T09:55:01.985Z,3.60
2018-06-30T09:56:01.932Z,3.40
2018-06-30T09:57:01.870Z,3.80
2018-06-30T09:58:01.795Z,4.00
2018-06-30T09:59:01.789Z,4.00
2018-06-30T10:00:01.684Z,3.60
2018-06-30T10:01:01.616Z,3.60
2018-06-30T10:02:01.554Z,4.00
2018-06-30T10:03:01.496Z,3.90
2018-06-30T10:04:01.440Z,3.80
2018-06-30T10:05:01.390Z,4.20
2018-06-30T10:06:01.326Z,4.10
2018-06-30T10:07:01.249Z,3.70
2018-06-30T10:08:01.194Z,3.80
2018-06-30T10:09:01.176Z,4.00
2018-06-30T10:10:01.078Z,3.80
2018-06-30T10:11:01.069Z,3.80
2018-06-30T10:12:00.955Z,3.90
2018-06-30T10:13:00.909Z,3.80
2018-06-30T10:14:00.848Z,3.70
2018-06-30T10:15:00.786Z,3.80
2018-06-30T10:16:00.728Z,3.60
2018-06-30T10:17:00.670Z,3.50
2018-06-30T10:18:00.597Z,3.60
2018-06-30T10:19:00.591Z,3.80
2018-06-30T10:20:00.482Z,3.10
2018-06-30T10:21:00.511Z,3.30
2018-06-30T10:22:00.375Z,3.70
2018-06-30T10:23:00.310Z,3.50
2018-06-30T10:24:00.292Z,3.80
2018-06-30T10:25:00.192Z,3.40
2018-06-30T10:26:00.125Z,3.70
2018-06-30T10:27:00.059Z,3.60
2018-06-30T10:28:00.017Z,3.70
2018-06-30T10:28:59.970Z,3.70
2018-06-30T10:29:59.889Z,3.60
2018-06-30T10:30:59.833Z,3.80
2018-06-30T10:31:59.767Z,3.50
2018-06-30T10:32:59.711Z,4.30
2018-06-30T10:33:59.686Z,3.20
2018-06-30T10:34:59.601Z,3.90
2018-06-30T10:35:59.522Z,3.70
2018-06-30T10:36:59.463Z,3.60
2018-06-30T10:37:59.400Z,3.50
2018-06-30T10:38:59.359Z,3.60
2018-06-30T10:39:59.285Z,3.70
2018-06-30T10:40:59.237Z,3.70
2018-06-30T10:41:59.170Z,3.70
2018-06-30T10:42:59.108Z,3.80
2018-06-30T10:43:59.050Z,3.50
2018-06-30T10:44:58.992Z,3.30
2018-06-30T10:45:58.927Z,3.70
2018-06-30T10:46:58.882Z,3.60
2018-06-30T10:47:58.826Z,3.70
2018-06-30T10:48:58.753Z,3.60
2018-06-30T10:49:58.694Z,3.80
2018-06-30T10:50:58.634Z,3.40
2018-06-30T10:51:58.585Z,3.50
2018-06-30T10:52:58.517Z,3.60
2018-06-30T10:53:58.459Z,3.50
2018-06-30T10:54:58.395Z,3.50
2018-06-30T10:55:58.346Z,3.50
2018-06-30T10:56:58.275Z,3.80
2018-06-30T10:57:58.230Z,3.80
2018-06-30T10:58:58.156Z,3.90
2018-06-30T10:59:58.098Z,3.40
2018-06-30T11:00:58.057Z,3.30
2018-06-30T11:01:57.981Z,3.60
2018-06-30T11:02:57.939Z,3.50
2018-06-30T11:03:57.900Z,3.50
2018-06-30T11:04:57.810Z,3.60
2018-06-30T11:05:57.797Z,3.60
2018-06-30T11:06:57.690Z,3.80
2018-06-30T11:07:57.637Z,3.50
2018-06-30T11:08:57.567Z,3.40
2018-06-30T11:09:57.513Z,3.50
2018-06-30T11:10:57.494Z,3.80
2018-06-30T11:11:57.397Z,3.50
2018-06-30T11:12:57.342Z,3.60
2018-06-30T11:13:57.273Z,3.40
2018-06-30T11:14:57.220Z,3.40
2018-06-30T11:15:57.176Z,3.60
2018-06-30T11:16:57.093Z,3.70
2018-06-30T11:17:57.037Z,3.90
2018-06-30T11:18:57.007Z,3.50
2018-06-30T11:19:56.935Z,3.60
2018-06-30T11:20:56.880Z,3.60
2018-06-30T11:21:56.806Z,3.30
2018-06-30T11:22:56.742Z,3.60
2018-06-30T11:23:56.708Z,3.50
2018-06-30T11:24:56.624Z,3.50
2018-06-30T11:25:56.573Z,3.60
2018-06-30T11:26:56.516Z,3.20
2018-06-30T11:27:56.466Z,3.50
2018-06-30T11:28:56.409Z,3.30
2018-06-30T11:29:56.337Z,3.40
2018-06-30T11:30:56.287Z,3.70
2018-06-30T11:31:56.212Z,3.50
2018-06-30T11:32:56.162Z,3.80
2018-06-30T11:33:56.108Z,3.50
2018-06-30T11:34:56.039Z,3.70
2018-06-30T11:35:55.980Z,3.60
2018-06-30T11:36:55.926Z,3.20
2018-06-30T11:37:55.863Z,3.70
2018-06-30T11:38:55.801Z,3.40
2018-06-30T11:39:55.750Z,3.50
2018-06-30T11:40:55.867Z,3.50
2018-06-30T11:41:55.634Z,3.40
2018-06-30T11:42:55.578Z,3.50
2018-06-30T11:43:55.510Z,3.80
2018-06-30T11:44:55.444Z,3.80
2018-06-30T11:45:55.398Z,3.60
2018-06-30T11:46:55.341Z,3.60
2018-06-30T11:47:55.273Z,3.40
2018-06-30T11:48:55.215Z,3.50
2018-06-30T11:49:55.162Z,3.80
2018-06-30T11:50:55.096Z,3.50
2018-06-30T11:51:55.054Z,3.70
2018-06-30T11:52:55.118Z,3.20
2018-06-30T11:53:54.927Z,3.20
2018-06-30T11:54:54.881Z,3.80
2018-06-30T11:55:54.848Z,3.40
2018-06-30T11:56:54.743Z,3.40
2018-06-30T11:57:54.697Z,3.40
2018-06-30T11:58:54.631Z,3.60
2018-06-30T11:59:54.586Z,3.60
2018-06-30T12:00:54.521Z,3.80
2018-06-30T12:01:54.454Z,3.60
2018-06-30T12:02:54.402Z,3.50
2018-06-30T12:03:54.345Z,3.60
2018-06-30T12:04:54.285Z,3.40
2018-06-30T12:05:54.230Z,3.60
2018-06-30T12:06:54.176Z,3.60
2018-06-30T12:07:54.119Z,3.70
2018-06-30T12:08:54.060Z,3.60
2018-06-30T12:09:53.996Z,3.50
2018-06-30T12:10:53.939Z,3.50
2018-06-30T12:11:53.879Z,3.30
2018-06-30T12:12:53.827Z,3.40
2018-06-30T12:13:53.757Z,3.70
2018-06-30T12:14:53.693Z,3.70
2018-06-30T12:15:53.632Z,3.60
2018-06-30T12:16:53.615Z,3.40
2018-06-30T12:17:53.524Z,3.40
2018-06-30T12:18:53.471Z,3.30
2018-06-30T12:19:53.422Z,3.50
2018-06-30T12:20:53.366Z,3.60
2018-06-30T12:21:53.334Z,3.70
2018-06-30T12:22:53.398Z,3.80
2018-06-30T12:23:53.172Z,3.60
2018-06-30T12:24:53.107Z,3.50
2018-06-30T12:25:53.049Z,3.60
2018-06-30T12:26:53.011Z,3.90
2018-06-30T12:27:52.937Z,3.90
2018-06-30T12:28:52.889Z,3.50
2018-06-30T12:29:52.819Z,3.80
2018-06-30T12:30:52.768Z,3.70
2018-06-30T12:31:52.719Z,3.80
2018-06-30T12:32:52.648Z,3.80
2018-06-30T12:33:52.583Z,3.50
2018-06-30T12:34:52.528Z,3.40
2018-06-30T12:35:52.481Z,3.70
2018-06-30T12:36:52.419Z,3.60
2018-06-30T12:37:52.396Z,4.50
2018-06-30T12:38:52.295Z,4.00
2018-06-30T12:39:52.239Z,3.70
2018-06-30T12:40:52.165Z,4.00
2018-06-30T12:41:52.115Z,3.80
2018-06-30T12:42:52.053Z,4.00
2018-06-30T12:43:52.004Z,3.80
2018-06-30T12:44:51.950Z,4.10
2018-06-30T12:45:51.875Z,4.10
2018-06-30T12:46:51.831Z,3.90
2018-06-30T12:47:51.763Z,3.80
2018-06-30T12:48:51.702Z,4.00
2018-06-30T12:49:51.644Z,3.70
2018-06-30T12:50:51.597Z,3.90
2018-06-30T12:51:51.537Z,3.80
2018-06-30T12:52:51.479Z,4.00
2018-06-30T12:53:51.401Z,3.80
2018-06-30T12:54:51.409Z,3.70
2018-06-30T12:55:51.293Z,3.70
2018-06-30T12:56:51.229Z,4.10
2018-06-30T12:57:51.170Z,3.50
2018-06-30T12:58:51.126Z,4.20
2018-06-30T12:59:51.062Z,4.30
2018-06-30T13:00:51.004Z,3.70
2018-06-30T13:01:50.949Z,3.50
2018-06-30T13:02:50.912Z,3.70
2018-06-30T13:03:50.886Z,3.90
2018-06-30T13:04:50.760Z,3.70
2018-06-30T13:05:50.708Z,3.50
2018-06-30T13:06:50.656Z,3.80
2018-06-30T13:07:50.620Z,3.90
2018-06-30T13:08:50.529Z,3.80
2018-06-30T13:09:50.496Z,3.60
2018-06-30T13:10:50.429Z,3.80
2018-06-30T13:11:50.386Z,4.00
2018-06-30T13:12:50.303Z,4.00
2018-06-30T13:13:50.261Z,4.00
2018-06-30T13:14:50.178Z,3.60
2018-06-30T13:15:50.127Z,4.20
2018-06-30T13:16:50.074Z,4.00
2018-06-30T13:17:50.021Z,4.20